済州 の空港の天気 - METARとTAF

済州国際空港 ( RKPC / CJU ) - 韓国 済州
飛行場実況気象(Metar)
観測時間11/12 12:00 KST (11/12 03:00 UTC)
風向・風速北北西 4m/s
視程10km以上
天気現象
なし
気温16℃
湿度55%
気圧1022hPa
METARRKPC 120300Z 33007KT 290V360 CAVOK 16/07 Q1022 NOSIG
過去の天気等 Google飛行場航空写真 Wunderground天気予報

過去48時間のMETAR

飛行場予報(TAF)
発表時間: 11/12 08:00 KST (11/11 23:00 UTC)
予報対象時間: 12日9時 KST ~ 13日15時 KST
風向・風速北 4m/s
視程10km以上
なし
12日18時 KST ~ 12日19時 KST に徐々に
風向・風速南 3m/s
視程10km以上
少しの雲 雲底高度 910m
全天の8割程度の雲 雲底高度 4570m
13日9時 KST ~ 13日10時 KST に徐々に
風向・風速西南西 4m/s
TAF RKPC 112300Z 1200/1306 35007KT CAVOK TX17/1205Z TN10/1220Z TX17/1305Z
BECMG 1209/1210 17006KT 9999 FEW030 BKN150
BECMG 1300/1301 25008KT